OB272 SKBO-SCEL
Flight info
| Callsign | OB272 |
|---|---|
| Flight time | 4h 49m |
| Altitude | 36000 |
| Route | LIXAG4U LIXAG DCT PULTU UL305 TOKAN/N0480F380 UL305 JCL/N0477F370 UL302 ELASA/N0473F390 UL302 TOY DCT EMBAL UV204 SIMOK SIMOK7B |
| Aircraft | B77W/H-SDE1E2E3FGHIJ2J3J4J5M1RWXY/LB1D1 |
Departure
| Time | 2026-05-06 17:43 |
|---|---|
| Airport | El Dorado International Airport (SKBO) |
Arrival
| Time | 2026-05-06 22:32 |
|---|---|
| Airport | Comodoro Arturo Merino Benítez International Airport (SCEL) |
| Time | Latitude | Longitude | Altitude | Speed | Heading |
|---|---|---|---|---|---|
| 2026-05-06 16:59 | 4.69814 | -74.14601 | 8370 ft | 0 kts | 40° |
| 2026-05-06 17:25 | 4.69811 | -74.14603 | 8370 ft | 3 kts | 40° |
| 2026-05-06 17:26 | 4.69797 | -74.14616 | 8370 ft | 3 kts | 41° |
| 2026-05-06 17:26 | 4.69769 | -74.14635 | 8369 ft | 0 kts | 15° |
| 2026-05-06 17:30 | 4.69783 | -74.14633 | 8370 ft | 6 kts | 359° |
| 2026-05-06 17:30 | 4.69811 | -74.14661 | 8369 ft | 6 kts | 297° |
| 2026-05-06 17:31 | 4.69832 | -74.14698 | 8369 ft | 6 kts | 303° |
| 2026-05-06 17:31 | 4.69865 | -74.14743 | 8369 ft | 10 kts | 308° |
| 2026-05-06 17:31 | 4.69906 | -74.14796 | 8370 ft | 10 kts | 308° |
| 2026-05-06 17:31 | 4.69927 | -74.14858 | 8369 ft | 12 kts | 259° |
| 2026-05-06 17:32 | 4.69865 | -74.14962 | 8369 ft | 12 kts | 262° |
| 2026-05-06 17:32 | 4.69897 | -74.15036 | 8369 ft | 13 kts | 307° |
| 2026-05-06 17:32 | 4.69963 | -74.15122 | 8369 ft | 6 kts | 307° |
| 2026-05-06 17:32 | 4.69966 | -74.15127 | 8369 ft | 0 kts | 307° |
| 2026-05-06 17:33 | 4.69967 | -74.15128 | 8369 ft | 2 kts | 307° |
| 2026-05-06 17:33 | 4.70018 | -74.15196 | 8369 ft | 19 kts | 307° |
| 2026-05-06 17:33 | 4.70099 | -74.15302 | 8369 ft | 19 kts | 307° |
| 2026-05-06 17:33 | 4.70180 | -74.15409 | 8368 ft | 19 kts | 307° |
| 2026-05-06 17:34 | 4.70260 | -74.15516 | 8368 ft | 19 kts | 307° |
| 2026-05-06 17:34 | 4.70341 | -74.15622 | 8367 ft | 19 kts | 307° |
| 2026-05-06 17:34 | 4.70422 | -74.15728 | 8368 ft | 19 kts | 307° |
| 2026-05-06 17:34 | 4.70503 | -74.15835 | 8368 ft | 19 kts | 307° |
| 2026-05-06 17:35 | 4.70583 | -74.15941 | 8367 ft | 19 kts | 307° |
| 2026-05-06 17:35 | 4.70663 | -74.16047 | 8368 ft | 19 kts | 307° |
| 2026-05-06 17:35 | 4.70743 | -74.16153 | 8367 ft | 19 kts | 307° |
| 2026-05-06 17:36 | 4.70905 | -74.16366 | 8367 ft | 19 kts | 307° |
| 2026-05-06 17:36 | 4.70993 | -74.16484 | 8367 ft | 25 kts | 307° |
| 2026-05-06 17:36 | 4.71120 | -74.16651 | 8367 ft | 28 kts | 307° |
| 2026-05-06 17:36 | 4.71204 | -74.16762 | 8367 ft | 18 kts | 307° |
| 2026-05-06 17:37 | 4.71240 | -74.16835 | 8366 ft | 8 kts | 259° |
| 2026-05-06 17:37 | 4.71198 | -74.16886 | 8367 ft | 17 kts | 209° |
| 2026-05-06 17:37 | 4.71123 | -74.16897 | 8365 ft | 1 kts | 176° |
| 2026-05-06 17:37 | 4.71102 | -74.16896 | 8366 ft | 6 kts | 176° |
| 2026-05-06 17:38 | 4.71037 | -74.16878 | 8365 ft | 13 kts | 150° |
| 2026-05-06 17:38 | 4.71014 | -74.16861 | 8366 ft | 0 kts | 128° |
| 2026-05-06 17:38 | 4.71013 | -74.16860 | 8366 ft | 0 kts | 128° |
| 2026-05-06 17:42 | 4.71002 | -74.16846 | 8366 ft | 12 kts | 128° |
| 2026-05-06 17:42 | 4.70851 | -74.16650 | 8366 ft | 73 kts | 127° |
| 2026-05-06 17:42 | 4.70365 | -74.16011 | 8368 ft | 156 kts | 127° |
| 2026-05-06 17:43 | 4.69561 | -74.14956 | 8367 ft | 224 kts | 127° |
| 2026-05-06 17:43 | 4.68539 | -74.13638 | 9077 ft | 240 kts | 128° |
| 2026-05-06 17:43 | 4.68257 | -74.13285 | 9542 ft | 232 kts | 129° |
| 2026-05-06 17:43 | 4.67646 | -74.12548 | 10517 ft | 226 kts | 130° |
| 2026-05-06 17:44 | 4.66491 | -74.11457 | 11551 ft | 243 kts | 148° |
| 2026-05-06 17:44 | 4.64776 | -74.10976 | 12272 ft | 269 kts | 180° |
| 2026-05-06 17:44 | 4.63022 | -74.11503 | 13141 ft | 262 kts | 213° |
| 2026-05-06 17:44 | 4.61599 | -74.12411 | 14138 ft | 229 kts | 195° |
| 2026-05-06 17:45 | 4.60104 | -74.12423 | 15284 ft | 205 kts | 153° |
| 2026-05-06 17:45 | 4.58914 | -74.11593 | 15762 ft | 226 kts | 127° |
| 2026-05-06 17:45 | 4.58154 | -74.10088 | 15900 ft | 262 kts | 103° |
| 2026-05-06 17:45 | 4.57585 | -74.08284 | 16066 ft | 285 kts | 121° |
| 2026-05-06 17:46 | 4.56082 | -74.06931 | 16444 ft | 303 kts | 154° |
| 2026-05-06 17:46 | 4.53991 | -74.06504 | 16785 ft | 327 kts | 181° |
| 2026-05-06 17:46 | 4.51711 | -74.07146 | 16907 ft | 360 kts | 208° |
| 2026-05-06 17:46 | 4.49765 | -74.08847 | 16970 ft | 388 kts | 233° |
| 2026-05-06 17:47 | 4.48531 | -74.11343 | 16965 ft | 414 kts | 250° |
| 2026-05-06 17:47 | 4.47674 | -74.14138 | 16967 ft | 423 kts | 254° |
| 2026-05-06 17:47 | 4.47094 | -74.17034 | 16913 ft | 426 kts | 266° |
| 2026-05-06 17:47 | 4.47427 | -74.19951 | 16902 ft | 422 kts | 289° |
| 2026-05-06 17:48 | 4.48823 | -74.22508 | 16897 ft | 418 kts | 313° |
| 2026-05-06 17:48 | 4.51010 | -74.24379 | 16891 ft | 410 kts | 327° |
| 2026-05-06 17:48 | 4.53295 | -74.26125 | 16886 ft | 417 kts | 317° |
| 2026-05-06 17:48 | 4.54961 | -74.28525 | 16942 ft | 424 kts | 293° |
| 2026-05-06 17:49 | 4.55550 | -74.31397 | 17280 ft | 424 kts | 269° |
| 2026-05-06 17:49 | 4.55001 | -74.34253 | 17793 ft | 428 kts | 246° |
| 2026-05-06 17:49 | 4.53393 | -74.36762 | 18311 ft | 432 kts | 224° |
| 2026-05-06 17:49 | 4.50972 | -74.38508 | 18839 ft | 430 kts | 203° |
| 2026-05-06 17:50 | 4.48168 | -74.39564 | 19365 ft | 431 kts | 196° |
| 2026-05-06 17:50 | 4.45299 | -74.40493 | 19888 ft | 436 kts | 197° |
| 2026-05-06 17:50 | 4.42442 | -74.41573 | 20363 ft | 440 kts | 201° |
| 2026-05-06 17:50 | 4.39650 | -74.42852 | 20886 ft | 442 kts | 205° |
| 2026-05-06 17:51 | 4.36915 | -74.44293 | 21378 ft | 445 kts | 207° |
| 2026-05-06 17:51 | 4.34212 | -74.45841 | 21876 ft | 447 kts | 209° |
| 2026-05-06 17:52 | 4.26174 | -74.50679 | 23369 ft | 454 kts | 210° |
| 2026-05-06 17:52 | 4.23460 | -74.52316 | 23871 ft | 457 kts | 210° |
| 2026-05-06 17:52 | 4.20718 | -74.53961 | 24381 ft | 460 kts | 210° |
| 2026-05-06 17:52 | 4.17956 | -74.55613 | 24897 ft | 463 kts | 210° |
| 2026-05-06 17:53 | 4.15177 | -74.57271 | 25379 ft | 466 kts | 210° |
| 2026-05-06 17:53 | 4.12381 | -74.58937 | 25876 ft | 469 kts | 210° |
| 2026-05-06 17:53 | 4.09562 | -74.60618 | 26370 ft | 471 kts | 210° |
| 2026-05-06 17:53 | 4.06741 | -74.62302 | 26887 ft | 472 kts | 210° |
| 2026-05-06 17:54 | 4.03912 | -74.63991 | 27367 ft | 474 kts | 210° |
| 2026-05-06 17:54 | 4.01103 | -74.65665 | 27865 ft | 476 kts | 210° |
| 2026-05-06 17:54 | 3.98250 | -74.67365 | 28367 ft | 478 kts | 210° |
| 2026-05-06 17:54 | 3.95393 | -74.69069 | 28864 ft | 479 kts | 210° |
| 2026-05-06 17:55 | 3.92521 | -74.70780 | 29360 ft | 480 kts | 210° |
| 2026-05-06 17:55 | 3.89627 | -74.72447 | 29851 ft | 481 kts | 206° |
| 2026-05-06 17:55 | 3.86579 | -74.73830 | 30349 ft | 481 kts | 200° |
| 2026-05-06 17:55 | 3.83419 | -74.74936 | 30849 ft | 481 kts | 195° |
| 2026-05-06 17:56 | 3.80172 | -74.75735 | 31341 ft | 480 kts | 191° |
| 2026-05-06 17:56 | 3.76904 | -74.76446 | 31835 ft | 480 kts | 191° |
| 2026-05-06 17:56 | 3.73637 | -74.77139 | 32326 ft | 480 kts | 191° |
| 2026-05-06 17:56 | 3.70373 | -74.77831 | 32820 ft | 479 kts | 191° |
| 2026-05-06 17:57 | 3.67110 | -74.78529 | 33315 ft | 479 kts | 191° |
| 2026-05-06 17:57 | 3.63858 | -74.79234 | 33797 ft | 477 kts | 191° |
| 2026-05-06 17:57 | 3.60618 | -74.79944 | 34283 ft | 475 kts | 191° |
| 2026-05-06 17:57 | 3.57400 | -74.80654 | 34769 ft | 473 kts | 191° |
| 2026-05-06 17:58 | 3.54183 | -74.81367 | 35263 ft | 472 kts | 192° |
| 2026-05-06 17:58 | 3.50982 | -74.82075 | 35740 ft | 469 kts | 192° |
| 2026-05-06 17:58 | 3.47797 | -74.82780 | 36083 ft | 470 kts | 192° |
| 2026-05-06 17:58 | 3.44616 | -74.83483 | 36036 ft | 477 kts | 192° |
| 2026-05-06 17:59 | 3.38056 | -74.84932 | 36052 ft | 488 kts | 192° |
| 2026-05-06 17:59 | 3.31365 | -74.86412 | 36069 ft | 496 kts | 192° |
| 2026-05-06 18:00 | 3.24603 | -74.87907 | 36056 ft | 498 kts | 192° |
| 2026-05-06 18:00 | 3.17821 | -74.89406 | 36071 ft | 499 kts | 192° |
| 2026-05-06 18:01 | 3.11086 | -74.90894 | 36064 ft | 498 kts | 192° |
| 2026-05-06 18:01 | 3.04321 | -74.92389 | 36062 ft | 497 kts | 192° |
| 2026-05-06 18:02 | 2.97580 | -74.93876 | 36073 ft | 495 kts | 192° |
| 2026-05-06 18:02 | 2.90854 | -74.95362 | 36066 ft | 494 kts | 192° |
| 2026-05-06 18:03 | 2.84137 | -74.96844 | 36075 ft | 493 kts | 192° |
| 2026-05-06 18:03 | 2.77434 | -74.98324 | 36073 ft | 493 kts | 192° |
| 2026-05-06 18:04 | 2.70788 | -74.99791 | 36075 ft | 492 kts | 192° |
| 2026-05-06 18:04 | 2.64103 | -75.01266 | 36077 ft | 492 kts | 192° |
| 2026-05-06 18:05 | 2.57415 | -75.02740 | 36076 ft | 491 kts | 192° |
| 2026-05-06 18:05 | 2.50731 | -75.04215 | 36074 ft | 492 kts | 192° |
| 2026-05-06 18:06 | 2.44046 | -75.05691 | 36075 ft | 492 kts | 192° |
| 2026-05-06 18:06 | 2.37402 | -75.07159 | 36073 ft | 492 kts | 192° |
| 2026-05-06 18:07 | 2.30709 | -75.08634 | 36072 ft | 492 kts | 192° |
| 2026-05-06 18:07 | 2.24010 | -75.10115 | 36068 ft | 493 kts | 192° |
| 2026-05-06 18:08 | 2.17311 | -75.11595 | 36078 ft | 492 kts | 192° |
| 2026-05-06 18:08 | 2.10680 | -75.13049 | 36071 ft | 489 kts | 192° |
| 2026-05-06 18:09 | 2.04013 | -75.14525 | 36080 ft | 491 kts | 192° |
| 2026-05-06 18:09 | 1.97335 | -75.15988 | 36090 ft | 491 kts | 192° |
| 2026-05-06 18:10 | 1.90660 | -75.17457 | 36093 ft | 491 kts | 192° |
| 2026-05-06 18:10 | 1.83977 | -75.18934 | 36096 ft | 491 kts | 192° |
| 2026-05-06 18:11 | 1.77296 | -75.20409 | 36093 ft | 491 kts | 192° |
| 2026-05-06 18:11 | 1.70654 | -75.21877 | 36104 ft | 492 kts | 192° |
| 2026-05-06 18:12 | 1.63972 | -75.23350 | 36099 ft | 492 kts | 192° |
| 2026-05-06 18:12 | 1.57284 | -75.24820 | 36102 ft | 492 kts | 192° |
| 2026-05-06 18:13 | 1.50594 | -75.26294 | 36100 ft | 492 kts | 192° |
| 2026-05-06 18:13 | 1.43903 | -75.27770 | 36105 ft | 492 kts | 192° |
| 2026-05-06 18:14 | 1.37215 | -75.29242 | 36100 ft | 492 kts | 192° |
| 2026-05-06 18:14 | 1.30564 | -75.30708 | 36103 ft | 492 kts | 192° |
| 2026-05-06 18:15 | 1.23868 | -75.32185 | 36100 ft | 493 kts | 192° |
| 2026-05-06 18:15 | 1.17155 | -75.33666 | 36078 ft | 494 kts | 192° |
| 2026-05-06 18:16 | 1.10419 | -75.35148 | 36069 ft | 496 kts | 192° |
| 2026-05-06 18:16 | 1.03664 | -75.36635 | 36060 ft | 497 kts | 192° |
| 2026-05-06 18:17 | 0.96940 | -75.38116 | 36071 ft | 498 kts | 192° |
| 2026-05-06 18:17 | 0.90161 | -75.39610 | 36070 ft | 499 kts | 192° |
| 2026-05-06 18:18 | 0.83373 | -75.41103 | 36058 ft | 499 kts | 192° |
| 2026-05-06 18:18 | 0.76576 | -75.42601 | 36051 ft | 500 kts | 192° |
| 2026-05-06 18:19 | 0.69773 | -75.44100 | 36054 ft | 500 kts | 192° |
| 2026-05-06 18:19 | 0.62965 | -75.45601 | 36050 ft | 500 kts | 192° |
| 2026-05-06 18:20 | 0.56209 | -75.47090 | 36044 ft | 501 kts | 192° |
| 2026-05-06 18:20 | 0.49399 | -75.48589 | 36046 ft | 501 kts | 192° |
| 2026-05-06 18:21 | 0.42583 | -75.50089 | 36034 ft | 501 kts | 192° |
| 2026-05-06 18:21 | 0.35761 | -75.51590 | 36026 ft | 501 kts | 192° |
| 2026-05-06 18:22 | 0.28987 | -75.53083 | 36037 ft | 501 kts | 192° |
| 2026-05-06 18:22 | 0.22160 | -75.54587 | 36065 ft | 502 kts | 192° |
| 2026-05-06 18:23 | 0.15311 | -75.56094 | 36028 ft | 504 kts | 192° |
| 2026-05-06 18:23 | 0.08451 | -75.57606 | 36035 ft | 503 kts | 192° |
| 2026-05-06 18:24 | 0.01631 | -75.58990 | 36036 ft | 503 kts | 189° |
| 2026-05-06 18:24 | -0.05282 | -75.60123 | 36033 ft | 503 kts | 188° |
| 2026-05-06 18:25 | -0.12191 | -75.61238 | 36037 ft | 503 kts | 188° |
| 2026-05-06 18:25 | -0.19101 | -75.62396 | 36036 ft | 503 kts | 189° |
| 2026-05-06 18:26 | -0.26003 | -75.63576 | 36035 ft | 503 kts | 189° |
| 2026-05-06 18:26 | -0.32906 | -75.64759 | 36037 ft | 503 kts | 189° |
| 2026-05-06 18:27 | -0.39811 | -75.65940 | 36036 ft | 503 kts | 189° |
| 2026-05-06 18:27 | -0.46709 | -75.67121 | 36036 ft | 503 kts | 189° |
| 2026-05-06 18:28 | -0.53602 | -75.68299 | 36050 ft | 502 kts | 189° |
| 2026-05-06 18:28 | -0.60496 | -75.69477 | 36067 ft | 502 kts | 189° |
| 2026-05-06 18:29 | -0.67391 | -75.70656 | 36063 ft | 502 kts | 189° |
| 2026-05-06 18:29 | -0.74245 | -75.71827 | 36076 ft | 503 kts | 189° |
| 2026-05-06 18:30 | -0.81152 | -75.73008 | 36057 ft | 503 kts | 189° |
| 2026-05-06 18:30 | -0.88041 | -75.74185 | 36063 ft | 502 kts | 189° |
| 2026-05-06 18:31 | -0.93765 | -75.75162 | 36068 ft | 501 kts | 189° |
| 2026-05-06 18:31 | -1.00635 | -75.76338 | 36061 ft | 500 kts | 189° |
| 2026-05-06 18:32 | -1.07482 | -75.77509 | 36319 ft | 495 kts | 189° |
| 2026-05-06 18:32 | -1.10849 | -75.78084 | 36830 ft | 488 kts | 189° |
| 2026-05-06 18:32 | -1.14176 | -75.78653 | 37299 ft | 482 kts | 190° |
| 2026-05-06 18:33 | -1.17455 | -75.79213 | 37773 ft | 476 kts | 190° |
| 2026-05-06 18:33 | -1.20705 | -75.79768 | 38114 ft | 474 kts | 191° |
| 2026-05-06 18:33 | -1.27275 | -75.80891 | 38082 ft | 483 kts | 191° |
| 2026-05-06 18:34 | -1.33937 | -75.82031 | 38082 ft | 488 kts | 191° |
| 2026-05-06 18:34 | -1.40615 | -75.83173 | 38074 ft | 490 kts | 191° |
| 2026-05-06 18:35 | -1.47325 | -75.84321 | 38073 ft | 489 kts | 191° |
| 2026-05-06 18:35 | -1.54048 | -75.85471 | 38072 ft | 488 kts | 191° |
| 2026-05-06 18:36 | -1.60731 | -75.86614 | 38072 ft | 486 kts | 191° |
| 2026-05-06 18:36 | -1.67394 | -75.87753 | 38074 ft | 484 kts | 191° |
| 2026-05-06 18:37 | -1.73989 | -75.88881 | 38070 ft | 483 kts | 191° |
| 2026-05-06 18:37 | -1.80612 | -75.90014 | 38072 ft | 482 kts | 191° |
| 2026-05-06 18:38 | -1.87231 | -75.91148 | 38074 ft | 481 kts | 191° |
| 2026-05-06 18:38 | -1.93822 | -75.92276 | 38073 ft | 481 kts | 191° |
| 2026-05-06 18:39 | -2.00417 | -75.93380 | 38071 ft | 480 kts | 188° |
| 2026-05-06 18:40 | -2.10383 | -75.94309 | 38080 ft | 482 kts | 186° |
| 2026-05-06 18:40 | -2.17083 | -75.94868 | 38087 ft | 482 kts | 186° |
| 2026-05-06 18:41 | -2.23784 | -75.95450 | 38084 ft | 483 kts | 186° |
| 2026-05-06 18:41 | -2.30490 | -75.96050 | 38082 ft | 484 kts | 186° |
| 2026-05-06 18:42 | -2.37207 | -75.96651 | 38070 ft | 485 kts | 186° |
| 2026-05-06 18:42 | -2.43933 | -75.97252 | 38101 ft | 485 kts | 186° |
| 2026-05-06 18:43 | -2.50659 | -75.97851 | 38105 ft | 485 kts | 186° |
| 2026-05-06 18:43 | -2.57347 | -75.98449 | 38111 ft | 486 kts | 186° |
| 2026-05-06 18:44 | -2.64090 | -75.99051 | 38111 ft | 486 kts | 186° |
| 2026-05-06 18:44 | -2.70824 | -75.99652 | 38109 ft | 485 kts | 186° |
| 2026-05-06 18:45 | -2.77555 | -76.00251 | 38103 ft | 485 kts | 186° |
| 2026-05-06 18:45 | -2.84288 | -76.00852 | 38100 ft | 485 kts | 186° |
| 2026-05-06 18:46 | -2.91012 | -76.01453 | 38101 ft | 484 kts | 186° |
| 2026-05-06 18:46 | -2.97693 | -76.02048 | 38100 ft | 484 kts | 186° |
| 2026-05-06 18:47 | -3.04400 | -76.02647 | 38102 ft | 484 kts | 186° |
| 2026-05-06 18:47 | -3.11105 | -76.03249 | 38099 ft | 483 kts | 186° |
| 2026-05-06 18:48 | -3.17814 | -76.03848 | 38101 ft | 483 kts | 185° |
| 2026-05-06 18:48 | -3.24475 | -76.04443 | 38101 ft | 483 kts | 185° |
| 2026-05-06 18:49 | -3.31183 | -76.05042 | 38102 ft | 484 kts | 185° |
| 2026-05-06 18:49 | -3.37896 | -76.05642 | 38101 ft | 484 kts | 185° |
| 2026-05-06 18:50 | -3.44615 | -76.06244 | 38090 ft | 485 kts | 185° |
| 2026-05-06 18:50 | -3.51339 | -76.06847 | 38061 ft | 485 kts | 185° |
| 2026-05-06 18:51 | -3.58072 | -76.07449 | 38053 ft | 485 kts | 185° |
| 2026-05-06 18:51 | -3.64810 | -76.08052 | 38053 ft | 485 kts | 185° |
| 2026-05-06 18:52 | -3.71491 | -76.08650 | 38056 ft | 485 kts | 185° |
| 2026-05-06 18:52 | -3.78216 | -76.09253 | 38046 ft | 485 kts | 185° |
| 2026-05-06 18:53 | -3.84949 | -76.09857 | 38040 ft | 485 kts | 185° |
| 2026-05-06 18:53 | -3.91679 | -76.10458 | 38035 ft | 485 kts | 185° |
| 2026-05-06 18:54 | -3.98404 | -76.11061 | 38035 ft | 485 kts | 185° |
| 2026-05-06 18:54 | -4.05134 | -76.11666 | 38035 ft | 486 kts | 185° |
| 2026-05-06 18:55 | -4.11835 | -76.12265 | 38027 ft | 486 kts | 185° |
| 2026-05-06 18:55 | -4.18568 | -76.12869 | 38025 ft | 486 kts | 185° |
| 2026-05-06 18:56 | -4.25305 | -76.13470 | 38031 ft | 485 kts | 185° |
| 2026-05-06 18:56 | -4.32036 | -76.14073 | 38033 ft | 486 kts | 185° |
| 2026-05-06 18:57 | -4.38774 | -76.14676 | 38024 ft | 486 kts | 185° |
| 2026-05-06 18:57 | -4.45515 | -76.15282 | 38020 ft | 486 kts | 185° |
| 2026-05-06 18:58 | -4.52208 | -76.15882 | 38017 ft | 486 kts | 185° |
| 2026-05-06 18:58 | -4.58947 | -76.16484 | 38019 ft | 486 kts | 185° |
| 2026-05-06 18:59 | -4.65679 | -76.17088 | 38021 ft | 486 kts | 185° |
| 2026-05-06 18:59 | -4.72418 | -76.17693 | 38021 ft | 486 kts | 185° |
| 2026-05-06 19:00 | -4.79168 | -76.18296 | 38014 ft | 487 kts | 185° |
| 2026-05-06 19:00 | -4.85912 | -76.18902 | 38017 ft | 486 kts | 185° |
| 2026-05-06 19:01 | -4.92654 | -76.19508 | 38006 ft | 486 kts | 185° |
| 2026-05-06 19:01 | -4.99388 | -76.20112 | 38008 ft | 485 kts | 185° |
| 2026-05-06 19:02 | -5.06063 | -76.20709 | 38010 ft | 484 kts | 185° |
| 2026-05-06 19:02 | -5.12786 | -76.21314 | 38013 ft | 485 kts | 186° |
| 2026-05-06 19:03 | -5.19515 | -76.21918 | 38003 ft | 485 kts | 186° |
| 2026-05-06 19:03 | -5.26246 | -76.22524 | 38008 ft | 485 kts | 186° |
| 2026-05-06 19:04 | -5.32982 | -76.23128 | 38005 ft | 485 kts | 186° |
| 2026-05-06 19:04 | -5.39720 | -76.23813 | 38000 ft | 486 kts | 187° |
| 2026-05-06 19:05 | -5.46398 | -76.24604 | 38002 ft | 486 kts | 187° |
| 2026-05-06 19:05 | -5.53126 | -76.25404 | 37998 ft | 487 kts | 187° |
| 2026-05-06 19:06 | -5.59855 | -76.26188 | 38002 ft | 488 kts | 187° |
| 2026-05-06 19:06 | -5.66646 | -76.26969 | 38009 ft | 494 kts | 187° |
| 2026-05-06 19:07 | -5.73482 | -76.27753 | 38009 ft | 499 kts | 187° |
| 2026-05-06 19:07 | -5.80420 | -76.28551 | 38008 ft | 503 kts | 187° |
| 2026-05-06 19:08 | -5.87405 | -76.29359 | 38007 ft | 507 kts | 187° |
| 2026-05-06 19:08 | -5.94435 | -76.30164 | 38001 ft | 508 kts | 187° |
| 2026-05-06 19:09 | -6.01459 | -76.30973 | 38000 ft | 508 kts | 187° |
| 2026-05-06 19:09 | -6.08500 | -76.31786 | 37999 ft | 508 kts | 187° |
| 2026-05-06 19:10 | -6.15532 | -76.32599 | 38009 ft | 508 kts | 187° |
| 2026-05-06 19:10 | -6.22510 | -76.33402 | 38006 ft | 507 kts | 187° |
| 2026-05-06 19:11 | -6.29509 | -76.34208 | 38018 ft | 506 kts | 187° |
| 2026-05-06 19:11 | -6.36501 | -76.35015 | 38018 ft | 505 kts | 187° |
| 2026-05-06 19:12 | -6.43486 | -76.35822 | 38016 ft | 504 kts | 187° |
| 2026-05-06 19:12 | -6.50457 | -76.36628 | 38018 ft | 504 kts | 187° |
| 2026-05-06 19:13 | -6.57397 | -76.37342 | 38020 ft | 504 kts | 186° |
| 2026-05-06 19:13 | -6.64419 | -76.37963 | 38029 ft | 503 kts | 186° |
| 2026-05-06 19:14 | -6.71362 | -76.38577 | 38027 ft | 504 kts | 186° |
| 2026-05-06 19:14 | -6.78347 | -76.39212 | 38032 ft | 504 kts | 186° |
| 2026-05-06 19:15 | -6.85343 | -76.39857 | 38000 ft | 505 kts | 186° |
| 2026-05-06 19:15 | -6.92342 | -76.40506 | 37990 ft | 506 kts | 186° |
| 2026-05-06 19:16 | -6.99349 | -76.41154 | 37979 ft | 506 kts | 186° |
| 2026-05-06 19:16 | -7.06356 | -76.41797 | 37981 ft | 506 kts | 186° |
| 2026-05-06 19:17 | -7.13375 | -76.42444 | 37981 ft | 506 kts | 186° |
| 2026-05-06 19:17 | -7.20337 | -76.43088 | 37980 ft | 505 kts | 186° |
| 2026-05-06 19:18 | -7.27344 | -76.43735 | 37980 ft | 505 kts | 186° |
| 2026-05-06 19:18 | -7.34352 | -76.44382 | 37972 ft | 505 kts | 186° |
| 2026-05-06 19:19 | -7.40173 | -76.44919 | 37968 ft | 505 kts | 186° |
| 2026-05-06 19:19 | -7.47181 | -76.45569 | 37973 ft | 505 kts | 186° |
| 2026-05-06 19:20 | -7.54178 | -76.46216 | 37980 ft | 505 kts | 185° |
| 2026-05-06 19:20 | -7.61182 | -76.46863 | 37984 ft | 505 kts | 185° |
| 2026-05-06 19:21 | -7.68155 | -76.47508 | 37981 ft | 505 kts | 185° |
| 2026-05-06 19:21 | -7.75152 | -76.48156 | 37991 ft | 505 kts | 185° |
| 2026-05-06 19:22 | -7.82156 | -76.48805 | 37995 ft | 505 kts | 185° |
| 2026-05-06 19:22 | -7.89154 | -76.49453 | 38000 ft | 505 kts | 185° |
| 2026-05-06 19:23 | -7.96146 | -76.50100 | 38009 ft | 505 kts | 185° |
| 2026-05-06 19:23 | -8.03146 | -76.50750 | 38016 ft | 505 kts | 185° |
| 2026-05-06 19:24 | -8.10153 | -76.51398 | 38020 ft | 505 kts | 185° |
| 2026-05-06 19:24 | -8.17154 | -76.52047 | 38031 ft | 505 kts | 185° |
| 2026-05-06 19:25 | -8.24160 | -76.52698 | 38038 ft | 505 kts | 185° |
| 2026-05-06 19:25 | -8.31121 | -76.53344 | 38045 ft | 505 kts | 185° |
| 2026-05-06 19:26 | -8.38142 | -76.53996 | 38049 ft | 505 kts | 185° |
| 2026-05-06 19:26 | -8.45152 | -76.54647 | 38053 ft | 506 kts | 186° |
| 2026-05-06 19:27 | -8.52120 | -76.55313 | 38056 ft | 506 kts | 186° |
| 2026-05-06 19:27 | -8.59132 | -76.56081 | 38066 ft | 506 kts | 187° |
| 2026-05-06 19:28 | -8.66142 | -76.56867 | 38067 ft | 507 kts | 187° |
| 2026-05-06 19:28 | -8.73157 | -76.57642 | 38066 ft | 507 kts | 186° |
| 2026-05-06 19:29 | -8.80124 | -76.58400 | 38075 ft | 507 kts | 186° |
| 2026-05-06 19:29 | -8.87149 | -76.59164 | 38068 ft | 507 kts | 186° |
| 2026-05-06 19:30 | -8.94164 | -76.59930 | 38074 ft | 507 kts | 187° |
| 2026-05-06 19:30 | -9.01190 | -76.60698 | 38086 ft | 507 kts | 187° |
| 2026-05-06 19:31 | -9.08180 | -76.61459 | 38083 ft | 507 kts | 187° |
| 2026-05-06 19:31 | -9.18711 | -76.62611 | 38098 ft | 507 kts | 187° |
| 2026-05-06 19:32 | -9.25723 | -76.63378 | 38111 ft | 506 kts | 187° |
| 2026-05-06 19:32 | -9.32734 | -76.64145 | 38119 ft | 507 kts | 187° |
| 2026-05-06 19:33 | -9.39745 | -76.64912 | 38129 ft | 507 kts | 187° |
| 2026-05-06 19:33 | -9.46755 | -76.65678 | 38139 ft | 507 kts | 187° |
| 2026-05-06 19:34 | -9.53778 | -76.66446 | 38144 ft | 507 kts | 187° |
| 2026-05-06 19:34 | -9.60762 | -76.67213 | 38153 ft | 507 kts | 187° |
| 2026-05-06 19:35 | -9.67790 | -76.67983 | 38145 ft | 507 kts | 187° |
| 2026-05-06 19:35 | -9.74814 | -76.68754 | 38156 ft | 507 kts | 187° |
| 2026-05-06 19:36 | -9.81844 | -76.69524 | 38153 ft | 507 kts | 187° |
| 2026-05-06 19:36 | -9.88866 | -76.70294 | 38166 ft | 508 kts | 187° |
| 2026-05-06 19:37 | -9.95857 | -76.71062 | 38179 ft | 507 kts | 187° |
| 2026-05-06 19:37 | -10.02870 | -76.71832 | 38226 ft | 506 kts | 187° |
| 2026-05-06 19:38 | -10.09876 | -76.72602 | 38234 ft | 506 kts | 187° |
| 2026-05-06 19:38 | -10.16882 | -76.73373 | 38229 ft | 506 kts | 187° |
| 2026-05-06 19:39 | -10.23889 | -76.74143 | 38228 ft | 507 kts | 187° |
| 2026-05-06 19:39 | -10.30914 | -76.74916 | 38219 ft | 507 kts | 187° |
| 2026-05-06 19:40 | -10.37941 | -76.75690 | 38242 ft | 507 kts | 187° |
| 2026-05-06 19:40 | -10.44908 | -76.76455 | 38236 ft | 507 kts | 187° |
| 2026-05-06 19:41 | -10.51927 | -76.77229 | 38222 ft | 507 kts | 187° |
| 2026-05-06 19:41 | -10.58944 | -76.78003 | 38222 ft | 507 kts | 187° |
| 2026-05-06 19:42 | -10.65962 | -76.78778 | 38219 ft | 507 kts | 187° |
| 2026-05-06 19:42 | -10.72983 | -76.79553 | 38227 ft | 507 kts | 187° |
| 2026-05-06 19:43 | -10.80002 | -76.80366 | 38215 ft | 507 kts | 190° |
| 2026-05-06 19:43 | -10.86858 | -76.81868 | 38214 ft | 506 kts | 195° |
| 2026-05-06 19:44 | -10.93696 | -76.83594 | 38199 ft | 506 kts | 195° |
| 2026-05-06 19:44 | -11.00549 | -76.85308 | 38195 ft | 506 kts | 195° |
| 2026-05-06 19:45 | -11.07416 | -76.86989 | 38180 ft | 506 kts | 195° |
| 2026-05-06 19:45 | -11.14273 | -76.88653 | 38159 ft | 506 kts | 195° |
| 2026-05-06 19:46 | -11.21117 | -76.90317 | 38155 ft | 506 kts | 195° |
| 2026-05-06 19:46 | -11.27977 | -76.91988 | 38131 ft | 506 kts | 195° |
| 2026-05-06 19:47 | -11.34780 | -76.93645 | 38115 ft | 506 kts | 195° |
| 2026-05-06 19:47 | -11.41627 | -76.95315 | 38101 ft | 506 kts | 195° |
| 2026-05-06 19:48 | -11.48469 | -76.96982 | 38078 ft | 506 kts | 195° |
| 2026-05-06 19:48 | -11.55314 | -76.98654 | 38061 ft | 505 kts | 195° |
| 2026-05-06 19:49 | -11.62160 | -77.00327 | 38037 ft | 505 kts | 195° |
| 2026-05-06 19:49 | -11.69004 | -77.01999 | 38022 ft | 505 kts | 195° |
| 2026-05-06 19:50 | -11.74481 | -77.03337 | 38006 ft | 505 kts | 195° |
| 2026-05-06 19:50 | -11.81317 | -77.05009 | 37993 ft | 505 kts | 195° |
| 2026-05-06 19:51 | -11.88113 | -77.06673 | 37981 ft | 505 kts | 195° |
| 2026-05-06 19:51 | -11.94952 | -77.08347 | 37975 ft | 505 kts | 195° |
| 2026-05-06 19:52 | -12.01850 | -77.09725 | 37968 ft | 507 kts | 185° |
| 2026-05-06 19:52 | -12.08916 | -77.09367 | 37965 ft | 511 kts | 171° |
| 2026-05-06 19:53 | -12.15825 | -77.07608 | 37962 ft | 512 kts | 166° |
| 2026-05-06 19:53 | -12.22711 | -77.05691 | 37978 ft | 512 kts | 166° |
| 2026-05-06 19:54 | -12.29611 | -77.03818 | 37984 ft | 513 kts | 167° |
| 2026-05-06 19:54 | -12.36473 | -77.02002 | 37977 ft | 513 kts | 167° |
| 2026-05-06 19:55 | -12.39944 | -77.01091 | 37635 ft | 518 kts | 167° |
| 2026-05-06 19:55 | -12.43448 | -77.00173 | 37118 ft | 519 kts | 167° |
| 2026-05-06 19:55 | -12.46940 | -76.99254 | 36624 ft | 516 kts | 167° |
| 2026-05-06 19:55 | -12.50410 | -76.98342 | 36179 ft | 515 kts | 167° |
| 2026-05-06 19:56 | -12.53894 | -76.97425 | 36034 ft | 520 kts | 167° |
| 2026-05-06 19:56 | -12.57414 | -76.96499 | 36019 ft | 524 kts | 167° |
| 2026-05-06 19:56 | -12.64524 | -76.94624 | 36018 ft | 530 kts | 167° |
| 2026-05-06 19:57 | -12.71700 | -76.92728 | 36032 ft | 534 kts | 167° |
| 2026-05-06 19:57 | -12.78917 | -76.90822 | 36046 ft | 536 kts | 167° |
| 2026-05-06 19:58 | -12.86106 | -76.88923 | 36037 ft | 536 kts | 167° |
| 2026-05-06 19:58 | -12.93331 | -76.87012 | 36033 ft | 536 kts | 167° |
| 2026-05-06 19:59 | -13.00544 | -76.85100 | 36033 ft | 534 kts | 167° |
| 2026-05-06 19:59 | -13.07729 | -76.83199 | 36044 ft | 533 kts | 167° |
| 2026-05-06 20:00 | -13.14903 | -76.81301 | 36030 ft | 532 kts | 167° |
| 2026-05-06 20:00 | -13.22068 | -76.79403 | 36026 ft | 531 kts | 167° |
| 2026-05-06 20:01 | -13.29217 | -76.77505 | 36026 ft | 531 kts | 167° |
| 2026-05-06 20:01 | -13.36375 | -76.75607 | 36014 ft | 531 kts | 167° |
| 2026-05-06 20:02 | -13.43536 | -76.73707 | 36009 ft | 531 kts | 167° |
| 2026-05-06 20:02 | -13.50699 | -76.71804 | 36003 ft | 531 kts | 167° |
| 2026-05-06 20:03 | -13.57820 | -76.69910 | 35995 ft | 531 kts | 167° |
| 2026-05-06 20:03 | -13.64985 | -76.68005 | 35987 ft | 531 kts | 167° |
| 2026-05-06 20:04 | -13.72157 | -76.66096 | 35988 ft | 532 kts | 167° |
| 2026-05-06 20:04 | -13.78105 | -76.64512 | 35983 ft | 532 kts | 167° |
| 2026-05-06 20:05 | -13.85271 | -76.62601 | 35983 ft | 532 kts | 167° |
| 2026-05-06 20:05 | -13.92454 | -76.60686 | 35964 ft | 533 kts | 167° |
| 2026-05-06 20:06 | -13.99647 | -76.58767 | 35969 ft | 533 kts | 167° |
| 2026-05-06 20:06 | -14.06825 | -76.56851 | 35973 ft | 533 kts | 167° |
| 2026-05-06 20:07 | -14.14007 | -76.54932 | 35972 ft | 533 kts | 167° |
| 2026-05-06 20:07 | -14.21148 | -76.53022 | 35972 ft | 533 kts | 167° |
| 2026-05-06 20:08 | -14.28319 | -76.51104 | 35973 ft | 532 kts | 167° |
| 2026-05-06 20:08 | -14.35491 | -76.49164 | 35972 ft | 532 kts | 167° |
| 2026-05-06 20:09 | -14.42653 | -76.47209 | 35972 ft | 532 kts | 167° |
| 2026-05-06 20:09 | -14.49816 | -76.45257 | 35972 ft | 532 kts | 167° |
| 2026-05-06 20:10 | -14.56984 | -76.43309 | 35980 ft | 533 kts | 167° |
| 2026-05-06 20:10 | -14.64106 | -76.41368 | 35984 ft | 533 kts | 167° |
| 2026-05-06 20:11 | -14.71285 | -76.39409 | 35984 ft | 533 kts | 167° |
| 2026-05-06 20:11 | -14.78461 | -76.37451 | 35981 ft | 534 kts | 167° |
| 2026-05-06 20:12 | -14.85651 | -76.35487 | 35987 ft | 534 kts | 167° |
| 2026-05-06 20:12 | -14.92844 | -76.33521 | 35984 ft | 534 kts | 167° |
| 2026-05-06 20:13 | -15.00029 | -76.31559 | 35997 ft | 534 kts | 167° |
| 2026-05-06 20:13 | -15.07234 | -76.29588 | 35986 ft | 535 kts | 167° |
| 2026-05-06 20:14 | -15.14384 | -76.27630 | 35996 ft | 534 kts | 167° |
| 2026-05-06 20:14 | -15.21574 | -76.25660 | 35997 ft | 534 kts | 167° |
| 2026-05-06 20:15 | -15.28772 | -76.23687 | 35988 ft | 535 kts | 167° |
| 2026-05-06 20:15 | -15.35927 | -76.21725 | 35979 ft | 535 kts | 167° |
| 2026-05-06 20:16 | -15.43115 | -76.19752 | 36022 ft | 534 kts | 167° |
| 2026-05-06 20:16 | -15.50291 | -76.17780 | 36067 ft | 533 kts | 168° |
| 2026-05-06 20:17 | -15.57474 | -76.15806 | 36077 ft | 534 kts | 168° |
| 2026-05-06 20:17 | -15.64653 | -76.13832 | 36085 ft | 534 kts | 168° |
| 2026-05-06 20:18 | -15.71855 | -76.11849 | 36093 ft | 534 kts | 168° |
| 2026-05-06 20:18 | -15.79038 | -76.09869 | 36094 ft | 534 kts | 168° |
| 2026-05-06 20:19 | -15.86228 | -76.07887 | 36104 ft | 535 kts | 168° |
| 2026-05-06 20:19 | -15.93420 | -76.05902 | 36108 ft | 535 kts | 168° |
| 2026-05-06 20:20 | -16.00610 | -76.03918 | 36110 ft | 535 kts | 168° |
| 2026-05-06 20:20 | -16.07763 | -76.01941 | 36116 ft | 535 kts | 168° |
| 2026-05-06 20:21 | -16.14956 | -75.99951 | 36123 ft | 535 kts | 168° |
| 2026-05-06 20:21 | -16.22144 | -75.97960 | 36128 ft | 535 kts | 168° |
| 2026-05-06 20:22 | -16.29339 | -75.95968 | 36127 ft | 535 kts | 168° |
| 2026-05-06 20:22 | -16.36544 | -75.93972 | 36144 ft | 535 kts | 168° |
| 2026-05-06 20:23 | -16.43741 | -75.91975 | 36118 ft | 535 kts | 168° |
| 2026-05-06 20:23 | -16.50958 | -75.89973 | 36070 ft | 535 kts | 168° |
| 2026-05-06 20:24 | -16.58115 | -75.87984 | 36070 ft | 535 kts | 168° |
| 2026-05-06 20:24 | -16.65306 | -75.85984 | 36121 ft | 534 kts | 168° |
| 2026-05-06 20:25 | -16.72479 | -75.83989 | 36145 ft | 534 kts | 168° |
| 2026-05-06 20:25 | -16.79956 | -75.81907 | 36134 ft | 534 kts | 168° |
| 2026-05-06 20:26 | -16.87098 | -75.79917 | 36146 ft | 535 kts | 168° |
| 2026-05-06 20:26 | -16.94308 | -75.77907 | 36146 ft | 535 kts | 168° |
| 2026-05-06 20:27 | -17.01510 | -75.75896 | 36133 ft | 535 kts | 168° |
| 2026-05-06 20:27 | -17.08717 | -75.73883 | 36132 ft | 536 kts | 168° |
| 2026-05-06 20:28 | -17.15920 | -75.71869 | 36145 ft | 536 kts | 168° |
| 2026-05-06 20:28 | -17.23130 | -75.69852 | 36145 ft | 536 kts | 168° |
| 2026-05-06 20:29 | -17.30307 | -75.67842 | 36099 ft | 537 kts | 168° |
| 2026-05-06 20:29 | -17.37525 | -75.65819 | 36095 ft | 537 kts | 168° |
| 2026-05-06 20:30 | -17.48351 | -75.62781 | 36091 ft | 536 kts | 168° |
| 2026-05-06 20:31 | -17.55554 | -75.60758 | 36100 ft | 536 kts | 168° |
| 2026-05-06 20:31 | -17.62763 | -75.58733 | 36102 ft | 536 kts | 168° |
| 2026-05-06 20:32 | -17.69921 | -75.56719 | 36102 ft | 536 kts | 168° |
| 2026-05-06 20:32 | -17.77133 | -75.54688 | 36102 ft | 536 kts | 169° |
| 2026-05-06 20:33 | -17.84355 | -75.52655 | 36030 ft | 538 kts | 168° |
| 2026-05-06 20:33 | -17.91594 | -75.50613 | 35973 ft | 538 kts | 168° |
| 2026-05-06 20:34 | -17.98821 | -75.48574 | 35974 ft | 537 kts | 168° |
| 2026-05-06 20:34 | -18.06041 | -75.46533 | 35981 ft | 537 kts | 169° |
| 2026-05-06 20:35 | -18.13259 | -75.44492 | 35980 ft | 536 kts | 169° |
| 2026-05-06 20:35 | -18.20464 | -75.42453 | 35983 ft | 536 kts | 169° |
| 2026-05-06 20:36 | -18.27673 | -75.40411 | 35982 ft | 537 kts | 169° |
| 2026-05-06 20:36 | -18.34890 | -75.38365 | 35982 ft | 537 kts | 169° |
| 2026-05-06 20:37 | -18.42047 | -75.36264 | 35982 ft | 538 kts | 168° |
| 2026-05-06 20:37 | -18.49253 | -75.34080 | 35982 ft | 538 kts | 168° |
| 2026-05-06 20:38 | -18.56450 | -75.31898 | 35981 ft | 538 kts | 168° |
| 2026-05-06 20:38 | -18.63667 | -75.29720 | 35982 ft | 539 kts | 168° |
| 2026-05-06 20:39 | -18.70877 | -75.27551 | 35981 ft | 538 kts | 168° |
| 2026-05-06 20:39 | -18.78087 | -75.25380 | 35981 ft | 539 kts | 168° |
| 2026-05-06 20:40 | -18.85258 | -75.23217 | 35983 ft | 539 kts | 168° |
| 2026-05-06 20:40 | -18.92479 | -75.21035 | 35981 ft | 539 kts | 168° |
| 2026-05-06 20:41 | -18.99698 | -75.18854 | 35981 ft | 540 kts | 168° |
| 2026-05-06 20:41 | -19.06922 | -75.16670 | 35981 ft | 540 kts | 168° |
| 2026-05-06 20:42 | -19.12925 | -75.14855 | 35982 ft | 540 kts | 168° |
| 2026-05-06 20:42 | -19.20147 | -75.12665 | 35980 ft | 540 kts | 168° |
| 2026-05-06 20:43 | -19.27372 | -75.10472 | 35981 ft | 539 kts | 168° |
| 2026-05-06 20:43 | -19.34581 | -75.08284 | 35982 ft | 539 kts | 168° |
| 2026-05-06 20:44 | -19.41807 | -75.06089 | 35982 ft | 539 kts | 168° |
| 2026-05-06 20:44 | -19.48975 | -75.03910 | 35981 ft | 539 kts | 168° |
| 2026-05-06 20:45 | -19.56193 | -75.01714 | 35981 ft | 539 kts | 168° |
| 2026-05-06 20:45 | -19.63413 | -74.99516 | 35980 ft | 539 kts | 168° |
| 2026-05-06 20:46 | -19.70626 | -74.97318 | 35981 ft | 539 kts | 168° |
| 2026-05-06 20:46 | -19.77837 | -74.95114 | 35981 ft | 539 kts | 168° |
| 2026-05-06 20:47 | -19.85044 | -74.92914 | 35981 ft | 539 kts | 168° |
| 2026-05-06 20:47 | -19.92205 | -74.90723 | 35981 ft | 539 kts | 168° |
| 2026-05-06 20:48 | -19.99408 | -74.88518 | 35983 ft | 538 kts | 168° |
| 2026-05-06 20:48 | -20.06605 | -74.86311 | 35982 ft | 538 kts | 169° |
| 2026-05-06 20:49 | -20.13809 | -74.84104 | 35991 ft | 538 kts | 169° |
| 2026-05-06 20:49 | -20.21007 | -74.81895 | 35991 ft | 539 kts | 169° |
| 2026-05-06 20:50 | -20.28216 | -74.79681 | 35989 ft | 539 kts | 169° |
| 2026-05-06 20:50 | -20.35430 | -74.77462 | 35993 ft | 539 kts | 169° |
| 2026-05-06 20:51 | -20.42618 | -74.75247 | 35991 ft | 540 kts | 169° |
| 2026-05-06 20:51 | -20.49852 | -74.73018 | 35985 ft | 540 kts | 169° |
| 2026-05-06 20:52 | -20.57060 | -74.70795 | 35987 ft | 540 kts | 169° |
| 2026-05-06 20:52 | -20.64295 | -74.68559 | 35997 ft | 540 kts | 169° |
| 2026-05-06 20:53 | -20.71497 | -74.66335 | 36009 ft | 540 kts | 169° |
| 2026-05-06 20:53 | -20.78729 | -74.64098 | 36011 ft | 541 kts | 169° |
| 2026-05-06 20:54 | -20.85905 | -74.61875 | 36010 ft | 541 kts | 169° |
| 2026-05-06 20:54 | -20.93148 | -74.59629 | 36006 ft | 541 kts | 169° |
| 2026-05-06 20:55 | -21.00384 | -74.57384 | 36010 ft | 541 kts | 169° |
| 2026-05-06 20:55 | -21.07623 | -74.55134 | 36008 ft | 542 kts | 169° |
| 2026-05-06 20:56 | -21.14857 | -74.52885 | 36009 ft | 542 kts | 169° |
| 2026-05-06 20:56 | -21.22062 | -74.50643 | 36007 ft | 542 kts | 169° |
| 2026-05-06 20:57 | -21.29309 | -74.48387 | 36009 ft | 542 kts | 169° |
| 2026-05-06 20:57 | -21.36565 | -74.46124 | 36006 ft | 542 kts | 170° |
| 2026-05-06 20:58 | -21.43805 | -74.43861 | 36010 ft | 542 kts | 170° |
| 2026-05-06 20:58 | -21.51051 | -74.41594 | 36008 ft | 542 kts | 170° |
| 2026-05-06 20:59 | -21.58262 | -74.39339 | 36013 ft | 542 kts | 170° |
| 2026-05-06 20:59 | -21.65518 | -74.37068 | 36010 ft | 543 kts | 170° |
| 2026-05-06 21:00 | -21.72779 | -74.34793 | 36015 ft | 543 kts | 170° |
| 2026-05-06 21:00 | -21.80029 | -74.32516 | 36020 ft | 543 kts | 170° |
| 2026-05-06 21:01 | -21.87283 | -74.30236 | 36016 ft | 542 kts | 170° |
| 2026-05-06 21:01 | -21.94521 | -74.27957 | 36018 ft | 542 kts | 170° |
| 2026-05-06 21:02 | -22.01725 | -74.25690 | 36019 ft | 542 kts | 170° |
| 2026-05-06 21:02 | -22.08966 | -74.23407 | 36019 ft | 542 kts | 170° |
| 2026-05-06 21:03 | -22.16219 | -74.21119 | 36017 ft | 543 kts | 170° |
| 2026-05-06 21:03 | -22.23474 | -74.18828 | 36019 ft | 542 kts | 170° |
| 2026-05-06 21:04 | -22.30710 | -74.16537 | 36011 ft | 537 kts | 170° |
| 2026-05-06 21:04 | -22.37860 | -74.14275 | 36028 ft | 541 kts | 170° |
| 2026-05-06 21:05 | -22.45132 | -74.11974 | 36019 ft | 546 kts | 170° |
| 2026-05-06 21:05 | -22.52447 | -74.09655 | 36020 ft | 548 kts | 170° |
| 2026-05-06 21:06 | -22.59790 | -74.07321 | 36018 ft | 549 kts | 170° |
| 2026-05-06 21:06 | -22.67128 | -74.04985 | 36018 ft | 549 kts | 170° |
| 2026-05-06 21:07 | -22.74406 | -74.02667 | 36019 ft | 548 kts | 170° |
| 2026-05-06 21:07 | -22.81735 | -74.00332 | 36016 ft | 547 kts | 171° |
| 2026-05-06 21:08 | -22.89030 | -73.98006 | 36015 ft | 545 kts | 171° |
| 2026-05-06 21:08 | -22.96245 | -73.95698 | 36025 ft | 544 kts | 171° |
| 2026-05-06 21:09 | -23.03519 | -73.93371 | 36028 ft | 544 kts | 171° |
| 2026-05-06 21:09 | -23.10779 | -73.91050 | 36026 ft | 544 kts | 171° |
| 2026-05-06 21:10 | -23.18052 | -73.88721 | 36027 ft | 545 kts | 171° |
| 2026-05-06 21:10 | -23.25326 | -73.86388 | 36027 ft | 546 kts | 171° |
| 2026-05-06 21:11 | -23.32573 | -73.84060 | 36031 ft | 546 kts | 171° |
| 2026-05-06 21:11 | -23.39876 | -73.81711 | 36028 ft | 547 kts | 171° |
| 2026-05-06 21:12 | -23.47191 | -73.79354 | 36029 ft | 548 kts | 171° |
| 2026-05-06 21:12 | -23.54512 | -73.76993 | 36042 ft | 548 kts | 171° |
| 2026-05-06 21:13 | -23.61779 | -73.74648 | 36052 ft | 548 kts | 171° |
| 2026-05-06 21:13 | -23.69075 | -73.72292 | 36057 ft | 547 kts | 171° |
| 2026-05-06 21:14 | -23.76372 | -73.69932 | 36051 ft | 546 kts | 171° |
| 2026-05-06 21:14 | -23.83668 | -73.67569 | 36055 ft | 546 kts | 171° |
| 2026-05-06 21:15 | -23.90951 | -73.65207 | 36057 ft | 546 kts | 171° |
| 2026-05-06 21:15 | -23.98233 | -73.62843 | 36053 ft | 546 kts | 172° |
| 2026-05-06 21:16 | -24.05501 | -73.60483 | 36051 ft | 545 kts | 172° |
| 2026-05-06 21:16 | -24.12725 | -73.58139 | 36053 ft | 544 kts | 172° |
| 2026-05-06 21:17 | -24.19987 | -73.55782 | 36058 ft | 544 kts | 172° |
| 2026-05-06 21:17 | -24.27243 | -73.53422 | 36059 ft | 544 kts | 172° |
| 2026-05-06 21:18 | -24.34503 | -73.51057 | 36060 ft | 544 kts | 172° |
| 2026-05-06 21:18 | -24.41773 | -73.48684 | 36054 ft | 544 kts | 172° |
| 2026-05-06 21:19 | -24.49045 | -73.46310 | 36055 ft | 544 kts | 172° |
| 2026-05-06 21:19 | -24.56324 | -73.43933 | 36061 ft | 545 kts | 172° |
| 2026-05-06 21:20 | -24.63544 | -73.41567 | 36065 ft | 545 kts | 172° |
| 2026-05-06 21:20 | -24.70812 | -73.39188 | 36065 ft | 545 kts | 172° |
| 2026-05-06 21:21 | -24.78103 | -73.36798 | 36068 ft | 546 kts | 172° |
| 2026-05-06 21:21 | -24.85395 | -73.34402 | 36070 ft | 547 kts | 172° |
| 2026-05-06 21:22 | -24.92685 | -73.32002 | 36088 ft | 546 kts | 172° |
| 2026-05-06 21:22 | -24.99923 | -73.29618 | 36093 ft | 546 kts | 172° |
| 2026-05-06 21:23 | -25.07207 | -73.27217 | 36093 ft | 546 kts | 173° |
| 2026-05-06 21:23 | -25.14484 | -73.24817 | 36092 ft | 546 kts | 173° |
| 2026-05-06 21:24 | -25.21776 | -73.22406 | 36095 ft | 546 kts | 173° |
| 2026-05-06 21:24 | -25.29055 | -73.19995 | 36102 ft | 546 kts | 173° |
| 2026-05-06 21:25 | -25.36334 | -73.17583 | 36102 ft | 547 kts | 173° |
| 2026-05-06 21:25 | -25.43589 | -73.15176 | 36101 ft | 547 kts | 173° |
| 2026-05-06 21:26 | -25.50891 | -73.12751 | 36103 ft | 546 kts | 173° |
| 2026-05-06 21:26 | -25.58173 | -73.10328 | 36099 ft | 546 kts | 173° |
| 2026-05-06 21:27 | -25.65453 | -73.07903 | 36103 ft | 545 kts | 173° |
| 2026-05-06 21:27 | -25.72723 | -73.05480 | 36101 ft | 545 kts | 173° |
| 2026-05-06 21:28 | -25.79994 | -73.03054 | 36101 ft | 545 kts | 173° |
| 2026-05-06 21:28 | -25.87225 | -73.00635 | 36099 ft | 546 kts | 173° |
| 2026-05-06 21:29 | -25.94505 | -72.98198 | 36105 ft | 547 kts | 173° |
| 2026-05-06 21:29 | -26.01816 | -72.95749 | 36102 ft | 548 kts | 173° |
| 2026-05-06 21:30 | -26.09123 | -72.93296 | 36101 ft | 548 kts | 173° |
| 2026-05-06 21:30 | -26.15191 | -72.91256 | 36107 ft | 548 kts | 173° |
| 2026-05-06 21:31 | -26.22500 | -72.88796 | 36111 ft | 547 kts | 173° |
| 2026-05-06 21:31 | -26.29788 | -72.86340 | 36113 ft | 548 kts | 173° |
| 2026-05-06 21:32 | -26.37049 | -72.83893 | 36111 ft | 548 kts | 173° |
| 2026-05-06 21:32 | -26.48018 | -72.80190 | 36110 ft | 548 kts | 173° |
| 2026-05-06 21:33 | -26.55348 | -72.77708 | 36113 ft | 549 kts | 173° |
| 2026-05-06 21:33 | -26.62615 | -72.75243 | 36112 ft | 549 kts | 173° |
| 2026-05-06 21:34 | -26.69925 | -72.72762 | 36109 ft | 549 kts | 173° |
| 2026-05-06 21:34 | -26.77242 | -72.70275 | 36113 ft | 549 kts | 173° |
| 2026-05-06 21:35 | -26.84560 | -72.67787 | 36110 ft | 549 kts | 173° |
| 2026-05-06 21:35 | -26.91830 | -72.65309 | 36114 ft | 548 kts | 173° |
| 2026-05-06 21:36 | -26.99131 | -72.62816 | 36118 ft | 548 kts | 173° |
| 2026-05-06 21:36 | -27.06441 | -72.60320 | 36124 ft | 548 kts | 173° |
| 2026-05-06 21:37 | -27.13694 | -72.57838 | 36122 ft | 548 kts | 173° |
| 2026-05-06 21:37 | -27.20998 | -72.55336 | 36124 ft | 548 kts | 173° |
| 2026-05-06 21:38 | -27.28290 | -72.52836 | 36123 ft | 548 kts | 173° |
| 2026-05-06 21:38 | -27.35589 | -72.50328 | 36120 ft | 548 kts | 173° |
| 2026-05-06 21:39 | -27.42882 | -72.47819 | 36124 ft | 548 kts | 173° |
| 2026-05-06 21:39 | -27.50188 | -72.45304 | 36118 ft | 549 kts | 173° |
| 2026-05-06 21:40 | -27.57463 | -72.42796 | 36121 ft | 550 kts | 174° |
| 2026-05-06 21:40 | -27.64818 | -72.40268 | 36120 ft | 551 kts | 174° |
| 2026-05-06 21:41 | -27.72108 | -72.37759 | 36119 ft | 551 kts | 174° |
| 2026-05-06 21:41 | -27.79449 | -72.35227 | 36120 ft | 551 kts | 174° |
| 2026-05-06 21:42 | -27.86791 | -72.32691 | 36128 ft | 552 kts | 174° |
| 2026-05-06 21:42 | -27.94148 | -72.30144 | 36128 ft | 552 kts | 174° |
| 2026-05-06 21:43 | -28.01495 | -72.27597 | 36131 ft | 552 kts | 174° |
| 2026-05-06 21:43 | -28.08840 | -72.25047 | 36129 ft | 552 kts | 174° |
| 2026-05-06 21:44 | -28.16188 | -72.22494 | 36125 ft | 552 kts | 174° |
| 2026-05-06 21:44 | -28.23537 | -72.19937 | 36124 ft | 552 kts | 174° |
| 2026-05-06 21:45 | -28.30834 | -72.17394 | 36131 ft | 551 kts | 173° |
| 2026-05-06 21:45 | -28.38177 | -72.14830 | 36133 ft | 551 kts | 173° |
| 2026-05-06 21:46 | -28.45520 | -72.12263 | 36126 ft | 550 kts | 174° |
| 2026-05-06 21:46 | -28.52780 | -72.09720 | 36133 ft | 549 kts | 173° |
| 2026-05-06 21:47 | -28.60066 | -72.07154 | 36127 ft | 547 kts | 173° |
| 2026-05-06 21:47 | -28.67340 | -72.04583 | 36126 ft | 545 kts | 173° |
| 2026-05-06 21:48 | -28.74581 | -72.02024 | 36130 ft | 544 kts | 173° |
| 2026-05-06 21:48 | -28.81791 | -71.99474 | 36130 ft | 542 kts | 173° |
| 2026-05-06 21:49 | -28.88970 | -71.96934 | 36123 ft | 543 kts | 174° |
| 2026-05-06 21:49 | -28.96212 | -71.94368 | 36135 ft | 544 kts | 174° |
| 2026-05-06 21:50 | -29.03392 | -71.91816 | 36131 ft | 545 kts | 174° |
| 2026-05-06 21:50 | -29.10620 | -71.89240 | 36138 ft | 544 kts | 174° |
| 2026-05-06 21:51 | -29.17850 | -71.86662 | 36128 ft | 543 kts | 174° |
| 2026-05-06 21:51 | -29.25061 | -71.84089 | 36123 ft | 541 kts | 174° |
| 2026-05-06 21:52 | -29.32245 | -71.81522 | 36134 ft | 540 kts | 174° |
| 2026-05-06 21:52 | -29.39401 | -71.78960 | 36125 ft | 537 kts | 173° |
| 2026-05-06 21:53 | -29.46529 | -71.76404 | 36117 ft | 535 kts | 174° |
| 2026-05-06 21:53 | -29.53600 | -71.73880 | 36120 ft | 534 kts | 174° |
| 2026-05-06 21:54 | -29.60685 | -71.71363 | 36122 ft | 532 kts | 174° |
| 2026-05-06 21:54 | -29.67750 | -71.68851 | 36119 ft | 531 kts | 174° |
| 2026-05-06 21:55 | -29.74817 | -71.66332 | 36124 ft | 531 kts | 174° |
| 2026-05-06 21:55 | -29.81830 | -71.63824 | 36128 ft | 530 kts | 174° |
| 2026-05-06 21:56 | -29.88879 | -71.61302 | 36132 ft | 530 kts | 174° |
| 2026-05-06 21:56 | -29.95930 | -71.58774 | 36128 ft | 530 kts | 174° |
| 2026-05-06 21:57 | -30.02983 | -71.56243 | 36134 ft | 530 kts | 173° |
| 2026-05-06 21:57 | -30.10033 | -71.53709 | 36129 ft | 531 kts | 173° |
| 2026-05-06 21:58 | -30.17057 | -71.51181 | 36135 ft | 531 kts | 173° |
| 2026-05-06 21:58 | -30.24115 | -71.48635 | 36128 ft | 532 kts | 173° |
| 2026-05-06 21:59 | -30.31118 | -71.45534 | 36132 ft | 547 kts | 164° |
| 2026-05-06 21:59 | -30.37968 | -71.41564 | 36133 ft | 551 kts | 162° |
| 2026-05-06 22:00 | -30.44816 | -71.37503 | 36122 ft | 553 kts | 163° |
| 2026-05-06 22:00 | -30.51714 | -71.33476 | 36123 ft | 558 kts | 163° |
| 2026-05-06 22:01 | -30.58683 | -71.29452 | 36145 ft | 568 kts | 163° |
| 2026-05-06 22:01 | -30.65815 | -71.25331 | 36128 ft | 575 kts | 163° |
| 2026-05-06 22:02 | -30.72985 | -71.21164 | 36130 ft | 577 kts | 163° |
| 2026-05-06 22:02 | -30.80175 | -71.16972 | 36108 ft | 573 kts | 163° |
| 2026-05-06 22:03 | -30.87248 | -71.12841 | 36121 ft | 568 kts | 163° |
| 2026-05-06 22:03 | -30.94323 | -71.08721 | 36122 ft | 569 kts | 163° |
| 2026-05-06 22:04 | -31.01423 | -71.04578 | 36125 ft | 572 kts | 163° |
| 2026-05-06 22:04 | -31.08497 | -71.00435 | 36107 ft | 574 kts | 163° |
| 2026-05-06 22:05 | -31.15650 | -70.96238 | 36117 ft | 575 kts | 163° |
| 2026-05-06 22:05 | -31.22807 | -70.92032 | 36118 ft | 576 kts | 163° |
| 2026-05-06 22:06 | -31.30017 | -70.88095 | 35975 ft | 563 kts | 172° |
| 2026-05-06 22:06 | -31.33737 | -70.86790 | 35466 ft | 552 kts | 179° |
| 2026-05-06 22:06 | -31.37455 | -70.85944 | 34951 ft | 538 kts | 184° |
| 2026-05-06 22:07 | -31.41127 | -70.85556 | 34478 ft | 520 kts | 192° |
| 2026-05-06 22:07 | -31.44724 | -70.85540 | 34016 ft | 516 kts | 193° |
| 2026-05-06 22:07 | -31.48271 | -70.85557 | 33543 ft | 517 kts | 193° |
| 2026-05-06 22:07 | -31.51876 | -70.85566 | 33045 ft | 518 kts | 192° |
| 2026-05-06 22:08 | -31.55491 | -70.85551 | 32531 ft | 517 kts | 192° |
| 2026-05-06 22:08 | -31.59067 | -70.85511 | 32028 ft | 510 kts | 192° |
| 2026-05-06 22:08 | -31.62598 | -70.85461 | 31543 ft | 504 kts | 191° |
| 2026-05-06 22:08 | -31.66092 | -70.85410 | 31044 ft | 498 kts | 191° |
| 2026-05-06 22:09 | -31.69534 | -70.85363 | 30529 ft | 489 kts | 192° |
| 2026-05-06 22:09 | -31.72911 | -70.85322 | 29914 ft | 479 kts | 192° |
| 2026-05-06 22:09 | -31.76164 | -70.85277 | 29540 ft | 469 kts | 191° |
| 2026-05-06 22:09 | -31.79409 | -70.85185 | 29022 ft | 464 kts | 191° |
| 2026-05-06 22:10 | -31.82614 | -70.85062 | 28609 ft | 456 kts | 191° |
| 2026-05-06 22:10 | -31.85748 | -70.84930 | 28295 ft | 446 kts | 191° |
| 2026-05-06 22:10 | -31.88861 | -70.84809 | 28002 ft | 446 kts | 191° |
| 2026-05-06 22:10 | -31.91951 | -70.84697 | 27694 ft | 442 kts | 191° |
| 2026-05-06 22:11 | -31.95009 | -70.84587 | 27397 ft | 438 kts | 191° |
| 2026-05-06 22:11 | -31.98044 | -70.84479 | 27083 ft | 434 kts | 191° |
| 2026-05-06 22:11 | -32.01051 | -70.84373 | 26802 ft | 431 kts | 191° |
| 2026-05-06 22:11 | -32.03035 | -70.84304 | 26583 ft | 430 kts | 191° |
| 2026-05-06 22:12 | -32.09847 | -70.84067 | 25884 ft | 423 kts | 191° |
| 2026-05-06 22:12 | -32.12780 | -70.83963 | 25578 ft | 420 kts | 191° |
| 2026-05-06 22:12 | -32.15689 | -70.83863 | 25268 ft | 418 kts | 191° |
| 2026-05-06 22:13 | -32.18550 | -70.83758 | 24967 ft | 416 kts | 191° |
| 2026-05-06 22:13 | -32.21435 | -70.83650 | 24686 ft | 413 kts | 191° |
| 2026-05-06 22:13 | -32.24314 | -70.83551 | 24346 ft | 412 kts | 191° |
| 2026-05-06 22:13 | -32.27189 | -70.83452 | 24032 ft | 413 kts | 191° |
| 2026-05-06 22:14 | -32.30046 | -70.83347 | 23675 ft | 408 kts | 190° |
| 2026-05-06 22:14 | -32.32881 | -70.83244 | 23360 ft | 406 kts | 190° |
| 2026-05-06 22:14 | -32.35704 | -70.83144 | 23066 ft | 405 kts | 189° |
| 2026-05-06 22:14 | -32.38485 | -70.83045 | 22720 ft | 406 kts | 189° |
| 2026-05-06 22:15 | -32.41303 | -70.82945 | 22456 ft | 405 kts | 187° |
| 2026-05-06 22:15 | -32.44119 | -70.82845 | 22201 ft | 404 kts | 186° |
| 2026-05-06 22:15 | -32.46932 | -70.82743 | 21932 ft | 404 kts | 186° |
| 2026-05-06 22:15 | -32.49741 | -70.82639 | 21657 ft | 402 kts | 185° |
| 2026-05-06 22:16 | -32.52531 | -70.82539 | 21404 ft | 400 kts | 185° |
| 2026-05-06 22:16 | -32.55304 | -70.82439 | 21193 ft | 399 kts | 185° |
| 2026-05-06 22:16 | -32.58086 | -70.82336 | 20957 ft | 401 kts | 185° |
| 2026-05-06 22:16 | -32.60881 | -70.82235 | 20694 ft | 401 kts | 185° |
| 2026-05-06 22:17 | -32.63672 | -70.82134 | 20459 ft | 402 kts | 185° |
| 2026-05-06 22:17 | -32.66479 | -70.82036 | 20194 ft | 403 kts | 184° |
| 2026-05-06 22:17 | -32.69274 | -70.81935 | 19937 ft | 401 kts | 184° |
| 2026-05-06 22:17 | -32.72051 | -70.81832 | 19673 ft | 396 kts | 184° |
| 2026-05-06 22:18 | -32.74756 | -70.81734 | 19420 ft | 394 kts | 184° |
| 2026-05-06 22:18 | -32.77497 | -70.81635 | 19193 ft | 394 kts | 184° |
| 2026-05-06 22:18 | -32.79850 | -70.81551 | 18988 ft | 395 kts | 184° |
| 2026-05-06 22:18 | -32.82576 | -70.81452 | 18649 ft | 399 kts | 184° |
| 2026-05-06 22:19 | -32.85356 | -70.81354 | 18149 ft | 400 kts | 183° |
| 2026-05-06 22:19 | -32.88139 | -70.81250 | 17629 ft | 399 kts | 183° |
| 2026-05-06 22:19 | -32.90906 | -70.81147 | 17133 ft | 396 kts | 183° |
| 2026-05-06 22:19 | -32.93641 | -70.81191 | 16635 ft | 389 kts | 190° |
| 2026-05-06 22:20 | -32.96309 | -70.81608 | 16129 ft | 385 kts | 193° |
| 2026-05-06 22:20 | -32.98950 | -70.82094 | 15636 ft | 382 kts | 193° |
| 2026-05-06 22:20 | -33.01579 | -70.82494 | 15123 ft | 381 kts | 187° |
| 2026-05-06 22:20 | -33.04238 | -70.82460 | 14608 ft | 382 kts | 180° |
| 2026-05-06 22:21 | -33.06883 | -70.82239 | 14111 ft | 371 kts | 179° |
| 2026-05-06 22:21 | -33.09342 | -70.81993 | 13592 ft | 349 kts | 178° |
| 2026-05-06 22:21 | -33.11707 | -70.81789 | 12917 ft | 337 kts | 179° |
| 2026-05-06 22:21 | -33.14012 | -70.81636 | 12172 ft | 325 kts | 180° |
| 2026-05-06 22:22 | -33.16238 | -70.81503 | 11392 ft | 315 kts | 180° |
| 2026-05-06 22:22 | -33.18407 | -70.81375 | 10625 ft | 310 kts | 180° |
| 2026-05-06 22:22 | -33.19707 | -70.81303 | 10186 ft | 303 kts | 180° |
| 2026-05-06 22:22 | -33.20351 | -70.81266 | 9954 ft | 300 kts | 180° |
| 2026-05-06 22:23 | -33.21484 | -70.81194 | 9541 ft | 300 kts | 179° |
| 2026-05-06 22:23 | -33.23547 | -70.81062 | 8783 ft | 291 kts | 180° |
| 2026-05-06 22:23 | -33.24876 | -70.80978 | 8305 ft | 287 kts | 180° |
| 2026-05-06 22:23 | -33.27503 | -70.80810 | 6145 ft | 303 kts | 180° |
| 2026-05-06 22:24 | -33.29744 | -70.80647 | 3720 ft | 342 kts | 180° |
| 2026-05-06 22:24 | -33.31330 | -70.80565 | 3306 ft | 320 kts | 176° |
| 2026-05-06 22:24 | -33.34058 | -70.80433 | 2686 ft | 273 kts | 181° |
| 2026-05-06 22:24 | -33.35306 | -70.80440 | 2208 ft | 262 kts | 181° |
| 2026-05-06 22:25 | -33.37061 | -70.80391 | 1708 ft | 244 kts | 178° |
| 2026-05-06 22:25 | -33.38562 | -70.80311 | 2273 ft | 199 kts | 178° |
| 2026-05-06 22:25 | -33.39955 | -70.80242 | 2744 ft | 200 kts | 179° |
| 2026-05-06 22:25 | -33.41338 | -70.80294 | 3109 ft | 195 kts | 194° |
| 2026-05-06 22:26 | -33.42632 | -70.80816 | 3547 ft | 198 kts | 208° |
| 2026-05-06 22:26 | -33.43643 | -70.81928 | 3945 ft | 202 kts | 241° |
| 2026-05-06 22:26 | -33.43956 | -70.83540 | 4389 ft | 201 kts | 278° |
| 2026-05-06 22:26 | -33.43275 | -70.84986 | 4755 ft | 212 kts | 322° |
| 2026-05-06 22:27 | -33.41758 | -70.85431 | 5168 ft | 241 kts | 0° |
| 2026-05-06 22:27 | -33.39937 | -70.85290 | 5788 ft | 273 kts | 359° |
| 2026-05-06 22:27 | -33.38146 | -70.85700 | 6538 ft | 250 kts | 324° |
| 2026-05-06 22:27 | -33.37005 | -70.87106 | 7047 ft | 233 kts | 301° |
| 2026-05-06 22:28 | -33.36163 | -70.88758 | 7301 ft | 232 kts | 296° |
| 2026-05-06 22:28 | -33.35386 | -70.90482 | 7079 ft | 242 kts | 306° |
| 2026-05-06 22:28 | -33.33900 | -70.91516 | 6982 ft | 278 kts | 353° |
| 2026-05-06 22:28 | -33.31869 | -70.90654 | 6935 ft | 344 kts | 39° |
| 2026-05-06 22:29 | -33.30433 | -70.88581 | 7738 ft | 301 kts | 52° |
| 2026-05-06 22:29 | -33.29290 | -70.86642 | 8054 ft | 278 kts | 53° |
| 2026-05-06 22:29 | -33.28158 | -70.84685 | 7195 ft | 295 kts | 57° |
| 2026-05-06 22:29 | -33.27537 | -70.82356 | 6942 ft | 289 kts | 90° |
| 2026-05-06 22:30 | -33.27911 | -70.80101 | 6784 ft | 281 kts | 116° |
| 2026-05-06 22:30 | -33.29005 | -70.78195 | 6463 ft | 273 kts | 143° |
| 2026-05-06 22:30 | -33.30698 | -70.77437 | 5306 ft | 268 kts | 187° |
| 2026-05-06 22:30 | -33.32395 | -70.78205 | 4532 ft | 253 kts | 227° |
| 2026-05-06 22:31 | -33.33481 | -70.79699 | 4094 ft | 229 kts | 216° |
| 2026-05-06 22:31 | -33.34931 | -70.80404 | 2757 ft | 241 kts | 185° |
| 2026-05-06 22:31 | -33.36651 | -70.80390 | 1786 ft | 238 kts | 179° |
| 2026-05-06 22:31 | -33.38222 | -70.80324 | 1578 ft | 211 kts | 175° |
| 2026-05-06 22:32 | -33.39447 | -70.80253 | 1576 ft | 118 kts | 177° |
| 2026-05-06 22:32 | -33.40011 | -70.80225 | 1578 ft | 42 kts | 177° |
| 2026-05-06 22:32 | -33.40199 | -70.80214 | 1580 ft | 24 kts | 176° |
| 2026-05-06 22:32 | -33.40363 | -70.80203 | 1579 ft | 24 kts | 176° |
| 2026-05-06 22:33 | -33.40491 | -70.80183 | 1579 ft | 13 kts | 159° |
| 2026-05-06 22:33 | -33.40570 | -70.80140 | 1579 ft | 13 kts | 185° |
| 2026-05-06 22:33 | -33.40590 | -70.80155 | 1579 ft | 4 kts | 240° |
| 2026-05-06 22:33 | -33.40568 | -70.80197 | 1579 ft | 5 kts | 339° |
| 2026-05-06 22:34 | -33.40452 | -70.80198 | 1579 ft | 26 kts | 356° |
| 2026-05-06 22:34 | -33.40246 | -70.80210 | 1580 ft | 32 kts | 357° |
| 2026-05-06 22:34 | -33.40102 | -70.80218 | 1579 ft | 21 kts | 358° |
| 2026-05-06 22:34 | -33.39918 | -70.80229 | 1578 ft | 32 kts | 357° |
| 2026-05-06 22:35 | -33.39669 | -70.80241 | 1576 ft | 41 kts | 358° |
| 2026-05-06 22:35 | -33.39433 | -70.80257 | 1576 ft | 19 kts | 356° |
| 2026-05-06 22:35 | -33.39344 | -70.80239 | 1577 ft | 3 kts | 52° |
| 2026-05-06 22:35 | -33.39352 | -70.80196 | 1576 ft | 10 kts | 118° |
| 2026-05-06 22:36 | -33.39413 | -70.80138 | 1573 ft | 0 kts | 145° |
| 2026-05-06 22:36 | -33.39425 | -70.80129 | 1573 ft | 0 kts | 146° |
| 2026-05-06 22:37 | -33.39458 | -70.80102 | 1572 ft | 16 kts | 146° |
| 2026-05-06 22:38 | -33.39523 | -70.79989 | 1570 ft | 17 kts | 102° |
| 2026-05-06 22:38 | -33.39527 | -70.79845 | 1570 ft | 17 kts | 88° |
| 2026-05-06 22:38 | -33.39523 | -70.79721 | 1569 ft | 6 kts | 87° |
| 2026-05-06 22:38 | -33.39538 | -70.79696 | 1569 ft | 0 kts | 163° |
| 2026-05-06 22:39 | -33.39539 | -70.79696 | 1569 ft | 1 kts | 169° |
| 2026-05-06 22:39 | -33.39567 | -70.79697 | 1569 ft | 9 kts | 181° |
| 2026-05-06 22:39 | -33.39583 | -70.79697 | 1569 ft | 1 kts | 179° |
| 2026-05-06 22:39 | -33.39589 | -70.79697 | 1569 ft | 1 kts | 179° |
| 2026-05-06 22:40 | -33.39600 | -70.79696 | 1569 ft | 2 kts | 178° |
| 2026-05-06 22:40 | -33.39602 | -70.79696 | 1569 ft | 0 kts | 178° |